Time;durP1;ratioP1;P1;durP2;ratioP2;P2;SDS_P1;SDS_P2;PMS_P1;PMS_P2;Temp;Humidity;BMP_temperature;BMP_pressure;BME280_temperature;BME280_humidity;BME280_pressure;Samples;Min_cycle;Max_cycle;Signal;HPM_P1;HPM_P2
2023/03/30 00:00:45;;;;;;;7.50;5.55;;;;;;;8.09;100.00;99907.59;6296275;28;20414;-88
2023/03/30 00:03:48;;;;;;;11.43;5.68;;;;;;;8.09;100.00;99913.56;6287239;28;20142;-88
2023/03/30 00:06:51;;;;;;;7.53;5.18;;;;;;;8.06;100.00;99900.91;6286795;28;20055;-88
2023/03/30 00:09:53;;;;;;;10.85;6.00;;;;;;;8.04;100.00;99891.66;6305557;28;20484;-88
2023/03/30 00:12:56;;;;;;;8.98;5.68;;;;;;;8.06;100.00;99889.78;6291339;28;20052;-88
2023/03/30 00:16:00;;;;;;;7.60;4.88;;;;;;;8.07;100.00;99889.66;6286382;28;20037;-88
2023/03/30 00:19:02;;;;;;;8.18;5.20;;;;;;;8.00;100.00;99875.63;6287238;28;20044;-88
2023/03/30 00:22:05;;;;;;;8.40;5.18;;;;;;;7.92;100.00;99867.66;6288323;28;20055;-88
2023/03/30 00:25:09;;;;;;;8.13;4.88;;;;;;;7.80;100.00;99858.31;6286514;28;20052;-88
2023/03/30 00:28:11;;;;;;;8.60;5.32;;;;;;;7.66;100.00;99867.13;6289240;28;20082;-88
2023/03/30 00:31:12;;;;;;;10.95;5.18;;;;;;;7.52;100.00;99860.47;6289502;28;20036;-88
2023/03/30 00:34:15;;;;;;;8.50;5.18;;;;;;;7.46;100.00;99851.47;6281618;28;20060;-88
2023/03/30 00:37:17;;;;;;;7.60;4.63;;;;;;;7.42;100.00;99849.22;6288195;28;20383;-88
2023/03/30 00:40:20;;;;;;;7.30;4.53;;;;;;;7.46;100.00;99845.50;6286115;28;20059;-88
2023/03/30 00:43:24;;;;;;;5.70;3.95;;;;;;;7.47;100.00;99837.63;6284462;28;20044;-88
2023/03/30 00:46:27;;;;;;;8.45;4.72;;;;;;;7.50;100.00;99842.56;6285472;28;20049;-88
2023/03/30 00:49:30;;;;;;;8.80;4.90;;;;;;;7.54;100.00;99836.22;6288469;28;20044;-88
2023/03/30 00:52:36;;;;;;;8.57;4.80;;;;;;;7.62;100.00;99834.81;6285887;28;20044;-88
2023/03/30 00:55:40;;;;;;;6.50;4.57;;;;;;;7.62;100.00;99830.47;6285510;28;20745;-88
2023/03/30 00:58:44;;;;;;;9.45;4.15;;;;;;;7.67;100.00;99818.06;6286891;28;20040;-88
2023/03/30 01:01:49;;;;;;;10.50;4.95;;;;;;;7.76;100.00;99819.09;6296912;28;20049;-88
2023/03/30 01:04:54;;;;;;;5.93;4.20;;;;;;;7.90;100.00;99821.41;6298232;28;20051;-88
2023/03/30 01:07:57;;;;;;;8.63;4.38;;;;;;;8.00;100.00;99816.34;6279382;28;20152;-88
2023/03/30 01:11:00;;;;;;;7.63;4.70;;;;;;;8.11;100.00;99825.81;6289604;28;20052;-88
2023/03/30 01:14:05;;;;;;;8.80;3.53;;;;;;;8.32;100.00;99823.25;6276049;28;20047;-88
2023/03/30 01:17:51;;;;;;;5.57;3.70;;;;;;;8.50;100.00;99813.25;6283468;28;20076;-88
2023/03/30 01:21:31;;;;;;;4.97;3.20;;;;;;;8.64;100.00;99812.91;6264353;28;20517;-88
2023/03/30 01:24:57;;;;;;;5.85;4.03;;;;;;;8.63;100.00;99791.47;6296849;28;20052;-88
2023/03/30 01:28:36;;;;;;;5.25;3.47;;;;;;;8.57;100.00;99775.66;6285288;28;20045;-88
2023/03/30 01:32:00;;;;;;;5.07;3.65;;;;;;;8.52;100.00;99767.50;6273266;28;20056;-88
2023/03/30 01:35:32;;;;;;;12.27;4.25;;;;;;;8.50;100.00;99765.06;6282705;28;20044;-88
2023/03/30 01:39:06;;;;;;;4.50;3.45;;;;;;;8.49;100.00;99753.09;6275631;28;20313;-88
2023/03/30 01:42:40;;;;;;;5.18;3.30;;;;;;;8.46;100.00;99755.94;6297803;28;20707;-88
2023/03/30 01:46:00;;;;;;;5.85;3.45;;;;;;;8.45;100.00;99746.56;6281590;28;20041;-88
2023/03/30 01:49:35;;;;;;;4.53;3.25;;;;;;;8.45;100.00;99732.81;6279646;28;20513;-88
2023/03/30 01:52:46;;;;;;;7.07;3.50;;;;;;;8.50;100.00;99721.22;6284449;28;20063;-88
2023/03/30 01:56:05;;;;;;;6.28;3.20;;;;;;;8.55;100.00;99713.91;6283945;28;20344;-88
2023/03/30 01:59:54;;;;;;;6.03;3.63;;;;;;;8.61;100.00;99715.97;6281612;28;20052;-88
2023/03/30 02:03:10;;;;;;;6.07;3.42;;;;;;;8.62;100.00;99716.75;6283201;28;20071;-88
2023/03/30 02:06:20;;;;;;;8.38;3.47;;;;;;;8.58;100.00;99702.50;6279793;28;20076;-88
2023/03/30 02:09:25;;;;;;;4.20;3.22;;;;;;;8.53;100.00;99704.66;6287223;28;20285;-88
2023/03/30 02:12:29;;;;;;;5.18;3.30;;;;;;;8.52;100.00;99698.69;6290303;28;20664;-88
2023/03/30 02:15:36;;;;;;;6.82;3.15;;;;;;;8.60;100.00;99710.94;6274396;28;20123;-88
2023/03/30 02:18:38;;;;;;;7.60;3.28;;;;;;;8.66;100.00;99694.94;6266345;28;20506;-88
2023/03/30 02:21:42;;;;;;;5.75;3.25;;;;;;;8.68;100.00;99693.03;6289061;28;20489;-88
2023/03/30 02:24:47;;;;;;;5.75;3.28;;;;;;;8.62;100.00;99694.38;6286711;28;20051;-88
2023/03/30 02:27:51;;;;;;;4.57;3.17;;;;;;;8.55;100.00;99680.38;6285817;28;20131;-88
2023/03/30 02:30:53;;;;;;;5.07;2.90;;;;;;;8.53;100.00;99677.09;6247715;28;20040;-88
2023/03/30 02:34:05;;;;;;;7.15;3.25;;;;;;;8.55;100.00;99657.16;6283577;28;20043;-88
2023/03/30 02:37:26;;;;;;;7.60;3.63;;;;;;;8.60;100.00;99639.53;6283674;28;20117;-88
2023/03/30 02:40:55;;;;;;;3.90;2.85;;;;;;;8.75;100.00;99634.81;6280526;28;20040;-88
2023/03/30 02:44:44;;;;;;;4.70;2.83;;;;;;;8.91;100.00;99644.63;6293287;28;20416;-88
2023/03/30 02:48:15;;;;;;;4.68;3.38;;;;;;;8.97;100.00;99638.16;6286018;28;20044;-88
2023/03/30 02:51:45;;;;;;;5.53;3.17;;;;;;;9.03;100.00;99643.56;6291304;28;20040;-88
2023/03/30 02:55:33;;;;;;;7.78;3.22;;;;;;;9.10;100.00;99633.53;6282439;28;20036;-88
2023/03/30 02:59:01;;;;;;;3.47;2.90;;;;;;;9.09;100.00;99637.06;6284969;28;20084;-88
2023/03/30 03:02:18;;;;;;;4.78;3.47;;;;;;;9.05;100.00;99630.53;6293984;28;20150;-88
2023/03/30 03:05:26;;;;;;;4.60;3.10;;;;;;;9.06;100.00;99627.00;6273718;28;20047;-88
2023/03/30 03:08:46;;;;;;;4.90;3.53;;;;;;;9.11;100.00;99627.41;6282278;28;20056;-88
2023/03/30 03:11:53;;;;;;;;;;;;;;;9.08;100.00;99632.84;6293722;28;20182;-88
2023/03/30 03:15:01;;;;;;;6.43;3.38;;;;;;;9.11;100.00;99627.41;6286788;28;20579;-88
2023/03/30 03:18:04;;;;;;;5.57;2.97;;;;;;;9.04;100.00;99626.31;6289860;28;20034;-88
2023/03/30 03:21:08;;;;;;;4.38;2.90;;;;;;;8.97;100.00;99627.81;6292786;28;20528;-88
2023/03/30 03:24:12;;;;;;;6.28;3.40;;;;;;;8.97;100.00;99628.63;6267528;28;20048;-87
2023/03/30 03:27:37;;;;;;;4.60;3.25;;;;;;;8.94;100.00;99612.56;6198348;28;20054;-88
2023/03/30 03:30:48;;;;;;;4.28;3.58;;;;;;;8.88;100.00;99615.69;6190081;28;20066;-88
2023/03/30 03:33:52;;;;;;;5.00;3.38;;;;;;;8.89;100.00;99610.38;6189155;28;20226;-88
2023/03/30 03:37:07;;;;;;;5.90;3.70;;;;;;;8.94;100.00;99603.06;6193147;28;20181;-88
2023/03/30 03:40:10;;;;;;;13.35;4.05;;;;;;;8.93;100.00;99601.44;6192894;28;20933;-88
2023/03/30 03:43:12;;;;;;;6.47;3.75;;;;;;;8.93;100.00;99596.28;6188615;28;20053;-88
2023/03/30 03:46:14;;;;;;;5.82;2.97;;;;;;;8.93;100.00;99585.16;6188255;28;20042;-88
2023/03/30 03:49:17;;;;;;;4.15;2.80;;;;;;;8.94;100.00;99594.50;6198841;28;20042;-88
2023/03/30 03:52:19;;;;;;;4.65;3.17;;;;;;;8.96;100.00;99593.44;6201046;28;20061;-89
2023/03/30 03:55:22;;;;;;;4.75;2.90;;;;;;;9.01;100.00;99593.84;6203093;28;20066;-89
2023/03/30 03:58:26;;;;;;;4.70;2.97;;;;;;;9.12;100.00;99595.50;6191423;28;20058;-89
2023/03/30 04:01:28;;;;;;;4.63;2.85;;;;;;;9.18;100.00;99600.13;6180095;28;20421;-89
2023/03/30 04:04:30;;;;;;;6.22;3.17;;;;;;;9.21;100.00;99599.03;6239419;28;20044;-89
2023/03/30 04:07:34;;;;;;;5.45;3.05;;;;;;;9.22;100.00;99590.34;6295384;28;20047;-89
2023/03/30 04:10:43;;;;;;;4.88;3.17;;;;;;;9.22;100.00;99586.00;6282631;28;20048;-89
2023/03/30 04:14:03;;;;;;;8.18;3.10;;;;;;;9.24;100.00;99572.94;6297688;28;20044;-88
2023/03/30 04:17:22;;;;;;;5.07;2.97;;;;;;;9.23;100.00;99564.38;6290604;28;20422;-89
2023/03/30 04:20:30;;;;;;;6.07;3.40;;;;;;;9.21;100.00;99563.69;6287739;28;20079;-89
2023/03/30 04:23:47;;;;;;;6.43;3.25;;;;;;;9.24;100.00;99540.19;6299771;28;20063;-89
2023/03/30 04:26:52;;;;;;;6.30;3.22;;;;;;;9.26;100.00;99535.69;6289259;28;20079;-89
2023/03/30 04:30:29;;;;;;;6.63;3.55;;;;;;;9.22;100.00;99529.19;6291161;28;20396;-89
2023/03/30 04:34:09;;;;;;;5.05;3.10;;;;;;;9.20;100.00;99525.91;6235910;28;20571;-89
2023/03/30 04:37:29;;;;;;;9.43;3.03;;;;;;;9.25;100.00;99539.22;6218713;28;20049;-89
2023/03/30 04:40:51;;;;;;;4.63;3.42;;;;;;;9.22;100.00;99533.53;6237094;28;20046;-89
2023/03/30 04:44:01;;;;;;;;;;;;;;;9.17;100.00;99536.53;6218410;28;20059;-89
2023/03/30 04:47:14;;;;;;;7.15;2.90;;;;;;;9.12;100.00;99541.28;6237062;28;19971;-89
2023/03/30 04:50:35;;;;;;;7.53;3.40;;;;;;;9.11;100.00;99542.22;6230512;28;20045;-89
2023/03/30 04:53:46;;;;;;;4.88;2.60;;;;;;;9.13;100.00;99542.09;6238483;28;20127;-89
2023/03/30 04:57:06;;;;;;;5.20;2.93;;;;;;;9.15;100.00;99535.03;6238027;28;20049;-89
2023/03/30 05:00:28;;;;;;;7.65;2.60;;;;;;;9.18;100.00;99522.66;6235061;28;20049;-89
2023/03/30 05:03:53;;;;;;;4.30;2.90;;;;;;;9.25;100.00;99538.41;6223697;28;20525;-89
2023/03/30 05:07:13;;;;;;;6.70;3.15;;;;;;;9.25;100.00;99541.81;6285015;28;20043;-89
2023/03/30 05:10:22;;;;;;;5.65;3.47;;;;;;;9.26;100.00;99540.03;6293450;28;20043;-89
2023/03/30 05:13:39;;;;;;;7.50;2.80;;;;;;;9.27;100.00;99534.75;6296963;28;20048;-89
2023/03/30 05:17:00;;;;;;;7.30;2.75;;;;;;;9.26;100.00;99533.09;6293477;28;20088;-89
2023/03/30 05:20:26;;;;;;;9.20;3.08;;;;;;;9.31;100.00;99529.31;6288840;28;20049;-89
2023/03/30 05:23:47;;;;;;;6.72;2.80;;;;;;;9.34;100.00;99537.59;6296365;28;20067;-89
2023/03/30 05:27:24;;;;;;;5.50;2.60;;;;;;;9.36;100.00;99529.72;6252838;28;20052;-89
2023/03/30 05:30:46;;;;;;;8.45;2.50;;;;;;;9.42;100.00;99521.41;6258878;28;20075;-89
2023/03/30 05:34:13;;;;;;;6.03;2.70;;;;;;;9.52;100.00;99519.63;6257182;28;20044;-89
2023/03/30 05:37:25;;;;;;;4.45;2.47;;;;;;;9.57;100.00;99519.22;6233762;28;20060;-89
2023/03/30 05:40:53;;;;;;;4.55;2.50;;;;;;;9.62;100.00;99510.09;6258209;28;20159;-89
2023/03/30 05:44:11;;;;;;;3.85;2.47;;;;;;;9.62;100.00;99515.25;6256303;28;20057;-88
2023/03/30 05:47:31;;;;;;;7.57;2.83;;;;;;;9.62;100.00;99517.84;6244886;28;20057;-89
2023/03/30 05:50:40;;;;;;;3.97;2.90;;;;;;;9.56;100.00;99517.56;6259338;28;20127;-89
2023/03/30 05:53:46;;;;;;;5.90;2.53;;;;;;;9.65;100.00;99522.72;6241726;28;20045;-89
2023/03/30 05:57:08;;;;;;;3.65;2.10;;;;;;;9.80;100.00;99530.03;6183634;28;20428;-89
2023/03/30 06:00:37;;;;;;;3.38;2.35;;;;;;;9.95;100.00;99520.84;6182773;28;20567;-89
2023/03/30 06:03:49;;;;;;;7.80;2.83;;;;;;;10.05;100.00;99524.22;6218999;28;20049;-89
2023/03/30 06:06:52;;;;;;;4.53;2.35;;;;;;;10.13;100.00;99510.56;6236245;28;20041;-88
2023/03/30 06:09:55;;;;;;;4.25;2.15;;;;;;;10.25;100.00;99526.72;6238529;28;20102;-89
2023/03/30 06:13:01;;;;;;;4.25;2.35;;;;;;;10.38;100.00;99516.06;6236961;28;20193;-89
2023/03/30 06:16:20;;;;;;;3.35;1.98;;;;;;;10.49;100.00;99505.53;6231814;28;20053;-89
2023/03/30 06:19:23;;;;;;;4.93;2.53;;;;;;;10.55;100.00;99508.31;6217502;28;20603;-89
2023/03/30 06:22:26;;;;;;;7.07;2.78;;;;;;;10.56;100.00;99502.19;6217752;28;20119;-89
2023/03/30 06:25:37;;;;;;;4.35;2.55;;;;;;;10.66;100.00;99483.22;6208567;28;20061;-89
2023/03/30 06:28:40;;;;;;;6.35;2.80;;;;;;;10.85;100.00;99482.25;6216285;28;20050;-89
2023/03/30 06:31:41;;;;;;;2.78;2.13;;;;;;;10.99;100.00;99476.53;6229733;28;20160;-89
2023/03/30 06:35:03;;;;;;;9.10;3.97;;;;;;;11.21;100.00;99463.09;6273933;28;20159;-89
2023/03/30 06:38:05;;;;;;;13.07;4.90;;;;;;;11.36;100.00;99463.38;6304936;28;20115;-89
2023/03/30 06:41:10;;;;;;;3.35;2.60;;;;;;;11.39;100.00;99465.66;6303258;28;20052;-89
2023/03/30 06:44:16;;;;;;;5.10;2.30;;;;;;;11.40;100.00;99459.50;6282446;28;20048;-89
2023/03/30 06:47:21;;;;;;;3.05;2.47;;;;;;;11.45;100.00;99451.25;6289024;28;20044;-89
2023/03/30 06:50:27;;;;;;;7.90;2.67;;;;;;;11.52;100.00;99452.28;6295949;28;20664;-89
2023/03/30 06:53:35;;;;;;;5.68;2.30;;;;;;;11.57;100.00;99462.19;6288815;28;20048;-89
2023/03/30 06:56:38;;;;;;;4.90;2.47;;;;;;;11.62;100.00;99462.53;6275391;28;20045;-89
2023/03/30 06:59:48;;;;;;;4.03;2.13;;;;;;;11.76;100.00;99469.75;6280383;28;20198;-90
2023/03/30 07:02:56;;;;;;;4.40;2.13;;;;;;;11.85;100.00;99486.97;6289461;28;21724;-89
2023/03/30 07:06:11;;;;;;;4.97;2.03;;;;;;;11.88;100.00;99488.47;6283916;28;20481;-89
2023/03/30 07:09:13;;;;;;;10.05;2.42;;;;;;;11.90;100.00;99485.69;6294764;28;20048;-89
2023/03/30 07:12:15;;;;;;;4.97;1.92;;;;;;;11.91;100.00;99487.34;6285022;28;20048;-89
2023/03/30 07:15:19;;;;;;;3.88;1.98;;;;;;;11.94;100.00;99492.22;6299983;28;20189;-89
2023/03/30 07:18:24;;;;;;;5.72;2.20;;;;;;;12.04;100.00;99491.13;6294219;28;20122;-89
2023/03/30 07:21:25;;;;;;;4.97;2.08;;;;;;;12.22;100.00;99478.06;6300381;28;20107;-89
2023/03/30 07:24:30;;;;;;;5.40;1.92;;;;;;;12.43;100.00;99475.03;6300510;28;20048;-89
2023/03/30 07:27:34;;;;;;;3.60;2.30;;;;;;;12.69;100.00;99479.28;6291191;28;20044;-89
2023/03/30 07:30:38;;;;;;;3.05;1.98;;;;;;;12.83;100.00;99490.81;6276114;28;20524;-89
2023/03/30 07:33:42;;;;;;;8.85;2.53;;;;;;;12.99;100.00;99488.22;6271398;28;20828;-89
2023/03/30 07:36:49;;;;;;;5.28;2.53;;;;;;;13.22;100.00;99492.78;6270928;28;20135;-90
2023/03/30 07:39:51;;;;;;;3.55;2.20;;;;;;;13.32;100.00;99496.06;6285518;28;20506;-89
2023/03/30 07:42:53;;;;;;;4.63;1.80;;;;;;;13.43;100.00;99498.31;6299368;28;20137;-89
2023/03/30 07:45:55;;;;;;;4.15;1.70;;;;;;;13.53;100.00;99498.13;6287830;28;20052;-90
2023/03/30 07:49:07;;;;;;;3.60;1.90;;;;;;;13.63;100.00;99490.13;6274183;28;20048;-88
2023/03/30 07:52:09;;;;;;;5.13;1.80;;;;;;;13.77;100.00;99490.25;6289100;28;20548;-90
2023/03/30 07:55:19;;;;;;;;;;;;;;;13.93;100.00;99493.78;6271658;28;20053;-90
2023/03/30 07:58:27;;;;;;;6.47;1.75;;;;;;;14.03;100.00;99496.19;6290504;28;20026;-90
2023/03/30 08:01:30;;;;;;;3.38;1.80;;;;;;;14.08;100.00;99491.28;6293052;28;20078;-90
2023/03/30 08:04:51;;;;;;;2.80;1.80;;;;;;;14.20;100.00;99501.16;6284747;28;20052;-90
2023/03/30 08:08:04;;;;;;;4.93;1.92;;;;;;;14.30;100.00;99505.34;6287879;28;20060;-90
2023/03/30 08:11:10;;;;;;;4.45;1.65;;;;;;;14.24;100.00;99501.63;6289874;28;20324;-90
2023/03/30 08:14:11;;;;;;;7.03;1.70;;;;;;;14.20;100.00;99502.94;6286580;28;20049;-90
2023/03/30 08:17:18;;;;;;;4.82;1.48;;;;;;;14.19;100.00;99506.53;6299006;28;20037;-90
2023/03/30 08:20:19;;;;;;;5.03;1.73;;;;;;;14.19;100.00;99509.16;6288326;28;20073;-90
2023/03/30 08:23:24;;;;;;;17.95;2.78;;;;;;;14.15;100.00;99508.66;6287658;28;20042;-91
2023/03/30 08:26:27;;;;;;;11.32;1.90;;;;;;;14.17;100.00;99504.09;6300521;28;20048;-91
2023/03/30 08:29:30;;;;;;;10.43;1.85;;;;;;;14.28;100.00;99515.91;6291662;28;20052;-91
2023/03/30 08:32:32;;;;;;;4.20;2.30;;;;;;;14.43;100.00;99510.78;6287103;28;20133;-90
2023/03/30 08:35:34;;;;;;;3.45;1.80;;;;;;;14.43;100.00;99500.38;6292809;28;20040;-91
2023/03/30 08:38:35;;;;;;;3.30;1.83;;;;;;;14.35;100.00;99498.63;6283475;28;20041;-90
2023/03/30 08:42:04;;;;;;;5.35;2.05;;;;;;;14.48;100.00;99497.28;6284648;28;20052;-90
2023/03/30 08:45:10;;;;;;;6.90;2.30;;;;;;;14.53;100.00;99506.22;6297086;28;20368;-90
2023/03/30 08:48:36;;;;;;;4.40;1.90;;;;;;;14.61;100.00;99500.16;6288174;28;20185;-91
2023/03/30 08:51:38;;;;;;;7.40;2.30;;;;;;;14.82;100.00;99496.91;6258634;28;20182;-90
2023/03/30 08:54:40;;;;;;;3.28;2.10;;;;;;;15.07;100.00;99487.13;6287924;28;20147;-91
2023/03/30 08:58:08;;;;;;;4.68;1.80;;;;;;;15.33;100.00;99480.69;6286864;28;20142;-91
2023/03/30 09:01:29;;;;;;;4.53;1.98;;;;;;;15.73;100.00;99476.91;6293049;28;20036;-90
2023/03/30 09:05:14;;;;;;;6.03;2.05;;;;;;;15.93;100.00;99477.94;6290116;28;20055;-91
2023/03/30 09:08:27;;;;;;;6.93;2.10;;;;;;;15.77;100.00;99469.50;6285570;28;20514;-90
2023/03/30 09:11:34;;;;;;;4.55;1.70;;;;;;;15.85;100.00;99478.06;6299046;28;20517;-90
2023/03/30 09:14:52;;;;;;;5.82;2.15;;;;;;;16.00;100.00;99480.66;6285179;28;20502;-91
2023/03/30 09:18:16;;;;;;;4.28;2.20;;;;;;;16.20;100.00;99482.66;6289365;28;20049;-91
2023/03/30 09:21:26;;;;;;;4.85;1.70;;;;;;;16.63;100.00;99480.94;6284328;28;20494;-91
2023/03/30 09:24:28;;;;;;;5.10;1.90;;;;;;;16.89;100.00;99472.53;6269872;28;20036;-91
2023/03/30 09:27:46;;;;;;;4.95;1.85;;;;;;;16.34;100.00;99480.03;6285050;28;20485;-92
2023/03/30 09:31:01;;;;;;;7.55;2.20;;;;;;;15.98;100.00;99474.00;6286667;28;20032;-92
2023/03/30 09:34:36;;;;;;;5.57;2.10;;;;;;;15.73;100.00;99478.69;6289225;28;20141;-92
2023/03/30 09:37:39;;;;;;;3.90;1.75;;;;;;;15.18;100.00;99468.47;6286150;28;20055;-91
2023/03/30 09:41:08;;;;;;;2.50;2.13;;;;;;;14.88;100.00;99482.38;6284081;28;20548;-92
2023/03/30 09:44:35;;;;;;;5.03;2.22;;;;;;;14.02;100.00;99507.59;6288160;28;20043;-89
2023/03/30 09:47:41;;;;;;;3.75;2.20;;;;;;;13.04;100.00;99535.34;6270914;28;20040;-95
2023/03/30 09:50:48;;;;;;;4.13;2.35;;;;;;;12.54;100.00;99506.84;6285723;28;20040;-95
2023/03/30 09:54:04;;;;;;;3.75;2.65;;;;;;;12.52;100.00;99508.78;6286428;28;20517;-94
2023/03/30 09:57:29;;;;;;;3.35;2.83;;;;;;;12.77;100.00;99505.28;6295126;28;20036;-94
2023/03/30 10:01:00;;;;;;;3.92;2.75;;;;;;;12.98;100.00;99514.38;6285004;28;20159;-92
2023/03/30 10:04:12;;;;;;;5.15;3.03;;;;;;;13.04;100.00;99504.16;6281345;28;20124;-91
2023/03/30 10:07:25;;;;;;;3.38;2.58;;;;;;;13.37;100.00;99516.38;6276206;28;20478;-92
2023/03/30 10:10:35;;;;;;;6.78;3.10;;;;;;;13.71;100.00;99505.72;6255641;28;20388;-92
2023/03/30 10:13:41;;;;;;;5.63;2.95;;;;;;;14.07;100.00;99508.69;6292902;28;20111;-90
2023/03/30 10:16:43;;;;;;;4.22;2.55;;;;;;;14.16;100.00;99499.88;6293251;28;20043;-92
2023/03/30 10:19:45;;;;;;;4.18;2.40;;;;;;;14.11;100.00;99496.16;6289955;28;20052;-92
2023/03/30 10:23:10;;;;;;;5.22;2.83;;;;;;;14.05;100.00;99496.84;6288113;28;20033;-91
2023/03/30 10:26:20;;;;;;;5.03;2.67;;;;;;;14.20;100.00;99505.53;6275995;28;20132;-91
2023/03/30 10:29:27;;;;;;;3.38;2.25;;;;;;;14.36;100.00;99497.66;6291357;28;20029;-91
2023/03/30 10:32:30;;;;;;;6.97;2.38;;;;;;;14.55;100.00;99517.28;6285395;28;20131;-91
2023/03/30 10:35:36;;;;;;;5.68;2.67;;;;;;;14.25;100.00;99516.25;6291102;28;20037;-91
2023/03/30 10:38:40;;;;;;;2.78;1.80;;;;;;;13.42;100.00;99605.06;6289899;28;20051;-89
2023/03/30 10:41:43;;;;;;;4.13;1.50;;;;;;;11.83;100.00;99586.63;6291171;28;20040;-91
2023/03/30 10:44:53;;;;;;;5.47;1.48;;;;;;;11.10;100.00;99599.78;6285067;28;20322;-92
2023/03/30 10:48:17;;;;;;;5.20;1.45;;;;;;;10.80;100.00;99603.53;6280695;28;20064;-90
2023/03/30 10:51:31;;;;;;;7.18;1.60;;;;;;;10.75;100.00;99593.63;6268891;28;20042;-93
2023/03/30 10:54:54;;;;;;;4.47;1.88;;;;;;;10.89;100.00;99577.59;6287955;28;20490;-94
2023/03/30 10:58:18;;;;;;;4.43;1.38;;;;;;;10.98;100.00;99575.88;6288034;28;20040;-96
2023/03/30 11:02:00;;;;;;;4.85;1.52;;;;;;;11.09;100.00;99577.47;6297809;28;20137;-96
2023/03/30 11:05:53;;;;;;;6.00;1.63;;;;;;;11.25;100.00;99571.59;6251584;28;20108;-96
2023/03/30 11:08:59;;;;;;;4.68;1.30;;;;;;;11.54;100.00;99571.34;6249814;28;20045;-96
2023/03/30 11:12:28;;;;;;;4.38;1.42;;;;;;;11.59;100.00;99559.56;6259152;28;20036;-95
2023/03/30 11:15:40;;;;;;;3.40;1.17;;;;;;;11.74;100.00;99557.22;6249527;28;20041;-94
2023/03/30 11:18:49;;;;;;;5.32;1.98;;;;;;;11.82;100.00;99559.03;6251171;28;20045;-94
2023/03/30 11:22:11;;;;;;;6.30;1.67;;;;;;;11.90;100.00;99559.16;6238930;28;20037;-93
2023/03/30 11:25:27;;;;;;;6.47;2.50;;;;;;;12.07;100.00;99567.81;6256243;28;20053;-91
2023/03/30 11:28:52;;;;;;;6.40;2.25;;;;;;;12.11;100.00;99544.97;6259191;28;20073;-93
2023/03/30 11:32:25;;;;;;;7.47;2.03;;;;;;;12.20;100.00;99537.06;6259113;28;20041;-91
2023/03/30 11:35:45;;;;;;;6.40;2.00;;;;;;;12.34;100.00;99537.44;6256222;28;20047;-92
2023/03/30 11:38:57;;;;;;;4.82;1.77;;;;;;;12.45;100.00;99524.19;6230001;28;20052;-92
2023/03/30 11:42:04;;;;;;;4.15;2.63;;;;;;;12.68;100.00;99517.41;6231976;28;20191;-92
2023/03/30 11:45:38;;;;;;;6.50;2.10;;;;;;;12.96;100.00;99524.13;6258753;28;20060;-91
2023/03/30 11:49:04;;;;;;;7.05;1.88;;;;;;;13.15;100.00;99519.41;6168381;28;20092;-92
2023/03/30 11:52:40;;;;;;;8.07;2.10;;;;;;;13.51;100.00;99513.88;6164184;28;20069;-91
2023/03/30 11:56:19;;;;;;;3.88;1.50;;;;;;;13.91;100.00;99525.19;6162662;28;20046;-92
2023/03/30 12:00:08;;;;;;;4.57;1.73;;;;;;;13.98;100.00;99518.31;6161727;28;20442;-90
2023/03/30 12:03:27;;;;;;;3.88;1.50;;;;;;;13.83;100.00;99540.81;6148457;28;20054;-91
2023/03/30 12:06:33;;;;;;;6.50;1.87;;;;;;;13.87;100.00;99536.91;6169406;28;20067;-91
2023/03/30 12:09:40;;;;;;;5.63;1.85;;;;;;;13.95;100.00;99529.06;6163365;28;21410;-91
2023/03/30 12:12:43;;;;;;;6.53;2.03;;;;;;;14.05;100.00;99521.06;6162834;28;20070;-92
2023/03/30 12:16:02;;;;;;;3.25;1.33;;;;;;;13.98;100.00;99512.31;6153194;28;20106;-91
2023/03/30 12:19:21;;;;;;;9.65;1.63;;;;;;;13.81;100.00;99521.13;6150013;28;20522;-91
2023/03/30 12:22:46;;;;;;;5.43;1.50;;;;;;;13.84;100.00;99533.81;6152152;28;20497;-90
2023/03/30 12:26:08;;;;;;;6.47;1.83;;;;;;;13.75;100.00;99530.41;6219187;28;20056;-91
2023/03/30 12:29:14;;;;;;;7.55;1.85;;;;;;;13.70;100.00;99528.31;6240808;28;20041;-91
2023/03/30 12:32:27;;;;;;;3.78;1.40;;;;;;;13.65;100.00;99535.00;6257813;28;20298;-91
2023/03/30 12:35:48;;;;;;;3.58;1.42;;;;;;;13.69;100.00;99520.66;6244860;28;20047;-90
2023/03/30 12:38:56;;;;;;;5.40;1.45;;;;;;;13.98;100.00;99526.13;6223944;28;20117;-92
2023/03/30 12:42:33;;;;;;;3.97;1.30;;;;;;;14.38;100.00;99526.97;6240244;28;20048;-92
2023/03/30 12:46:00;;;;;;;1.65;1.05;;;;;;;14.44;100.00;99522.84;6177214;28;20043;-90
2023/03/30 12:49:24;;;;;;;4.18;1.20;;;;;;;14.39;100.00;99531.16;6168779;28;20062;-90
2023/03/30 12:53:10;;;;;;;5.07;1.30;;;;;;;14.34;100.00;99536.06;6167989;28;20046;-92
2023/03/30 12:56:36;;;;;;;4.88;1.33;;;;;;;14.43;100.00;99537.66;6113389;29;20116;-91
2023/03/30 12:59:56;;;;;;;4.05;1.58;;;;;;;14.56;100.00;99534.53;6113258;29;20048;-91
2023/03/30 13:03:23;;;;;;;3.08;1.00;;;;;;;14.36;100.00;99541.09;6100146;29;20577;-91
2023/03/30 13:06:30;;;;;;;4.72;1.23;;;;;;;14.25;100.00;99536.28;6094712;29;20619;-91
2023/03/30 13:09:51;;;;;;;4.13;1.30;;;;;;;14.20;100.00;99571.44;6112145;29;20088;-91
2023/03/30 13:12:55;;;;;;;4.93;1.33;;;;;;;14.16;100.00;99545.91;6105744;29;20886;-91
2023/03/30 13:15:57;;;;;;;4.07;1.38;;;;;;;14.24;100.00;99548.50;6106107;29;20166;-91
2023/03/30 13:19:12;;;;;;;3.05;1.30;;;;;;;14.21;100.00;99549.63;6116836;29;20047;-90
2023/03/30 13:22:14;;;;;;;2.88;1.13;;;;;;;14.38;100.00;99546.94;6144550;28;20050;-90
2023/03/30 13:25:19;;;;;;;4.05;1.20;;;;;;;14.46;100.00;99548.69;6180021;28;20080;-91
2023/03/30 13:28:56;;;;;;;5.35;1.20;;;;;;;14.63;100.00;99556.31;6187998;28;20047;-90
2023/03/30 13:32:07;;;;;;;4.22;1.50;;;;;;;14.81;100.00;99556.03;6254115;28;20577;-92
2023/03/30 13:35:30;;;;;;;3.88;1.45;;;;;;;15.30;100.00;99547.03;6250942;28;20044;-91
2023/03/30 13:39:11;;;;;;;4.53;1.40;;;;;;;15.31;100.00;99566.94;6237813;28;20114;-91
2023/03/30 13:42:34;;;;;;;3.72;1.70;;;;;;;14.87;100.00;99564.94;6260316;28;20458;-91
2023/03/30 13:45:47;;;;;;;5.05;1.85;;;;;;;14.57;100.00;99551.78;6254991;28;20037;-91
2023/03/30 13:49:28;;;;;;;4.72;1.70;;;;;;;14.44;100.00;99554.09;6257685;28;20033;-91
2023/03/30 13:52:34;;;;;;;3.80;1.83;;;;;;;14.46;100.00;99554.75;6249215;28;20154;-90
2023/03/30 13:55:46;;;;;;;5.82;1.45;;;;;;;14.70;100.00;99573.84;6250514;28;20163;-91
2023/03/30 13:59:01;;;;;;;5.72;1.45;;;;;;;14.42;100.00;99569.88;6249373;28;20045;-90
2023/03/30 14:02:04;;;;;;;4.03;1.48;;;;;;;13.98;100.00;99562.53;6236195;28;20041;-90
2023/03/30 14:05:20;;;;;;;6.75;1.90;;;;;;;13.97;100.00;99565.31;6239175;28;20037;-92
2023/03/30 14:08:23;;;;;;;6.82;1.90;;;;;;;14.70;100.00;99590.28;6248218;28;20399;-91
2023/03/30 14:11:34;;;;;;;5.93;1.67;;;;;;;15.16;100.00;99577.31;6246866;28;20053;-93
2023/03/30 14:14:45;;;;;;;5.97;1.80;;;;;;;14.94;100.00;99573.69;6248889;28;20431;-90
2023/03/30 14:17:52;;;;;;;6.00;1.70;;;;;;;14.77;100.00;99572.97;6257864;28;20607;-92
2023/03/30 14:21:02;;;;;;;10.15;2.45;;;;;;;14.80;100.00;99570.03;6248270;28;20037;-91
2023/03/30 14:24:13;;;;;;;8.00;2.20;;;;;;;15.28;100.00;99565.47;6249927;28;20049;-92
2023/03/30 14:27:15;;;;;;;11.23;2.00;;;;;;;15.63;100.00;99555.41;6255017;28;20697;-91
2023/03/30 14:30:33;;;;;;;8.25;2.05;;;;;;;15.96;100.00;99557.69;6257387;28;20506;-92
2023/03/30 14:33:39;;;;;;;4.32;1.58;;;;;;;15.87;100.00;99558.75;6257047;28;20052;-92
2023/03/30 14:36:45;;;;;;;7.45;2.00;;;;;;;15.55;100.00;99570.28;6244146;28;20045;-91
2023/03/30 14:39:56;;;;;;;4.88;1.70;;;;;;;15.23;100.00;99564.38;6259563;28;20037;-91
2023/03/30 14:43:01;;;;;;;7.13;2.00;;;;;;;14.99;100.00;99544.53;6253441;28;20789;-91
2023/03/30 14:46:10;;;;;;;6.25;1.70;;;;;;;14.77;100.00;99554.75;6255804;28;20710;-91
2023/03/30 14:49:17;;;;;;;4.53;1.90;;;;;;;14.77;100.00;99559.16;6241206;28;20364;-90
2023/03/30 14:52:22;;;;;;;7.40;1.75;;;;;;;14.92;100.00;99561.84;6256379;28;20041;-91
2023/03/30 14:55:25;;;;;;;7.10;1.58;;;;;;;15.30;100.00;99552.25;6257007;28;20040;-91
2023/03/30 14:58:30;;;;;;;6.15;2.10;;;;;;;15.70;100.00;99553.72;6253338;28;20438;-92
2023/03/30 15:01:33;;;;;;;5.22;1.58;;;;;;;15.83;100.00;99550.50;6255900;28;20048;-91
2023/03/30 15:04:38;;;;;;;9.45;2.28;;;;;;;15.62;100.00;99551.16;6262582;28;20037;-91